Terminal Aerodrome Forecast
Issued by NWS Pocatello, ID

Home | Current Version | Previous Version | Text Only | Print | Product List | Glossary On
Versions: 1 2 3 4 5 6 7 8 9 10 11 12
000
FTUS45 KPIH 300500
TAFBYI
TAF
KBYI 300520Z 3006/3106 17008KT P6SM VCSH FEW080 BKN110
     FM301400 25015G25KT P6SM BKN140
     FM302300 28011KT P6SM VCSH BKN070=

USA.gov is the U.S. government's official web portal to all federal, state and local government web resources and services.